sensor_id;sensor_type;location;lat;lon;timestamp;temperature;humidity
13806;DHT22;6974;53.606;9.872;2023-07-16T00:01:15;21.20;99.90
13806;DHT22;6974;53.606;9.872;2023-07-16T00:03:42;21.10;99.90
13806;DHT22;6974;53.606;9.872;2023-07-16T00:06:09;21.10;99.90
13806;DHT22;6974;53.606;9.872;2023-07-16T00:08:36;21.10;99.90
13806;DHT22;6974;53.606;9.872;2023-07-16T00:11:04;21.10;99.90
13806;DHT22;6974;53.606;9.872;2023-07-16T00:13:32;21.10;99.90
13806;DHT22;6974;53.606;9.872;2023-07-16T00:16:00;21.10;99.90
13806;DHT22;6974;53.606;9.872;2023-07-16T00:18:27;21.00;99.90
13806;DHT22;6974;53.606;9.872;2023-07-16T00:20:55;21.00;99.90
13806;DHT22;6974;53.606;9.872;2023-07-16T00:23:23;21.00;99.90
13806;DHT22;6974;53.606;9.872;2023-07-16T00:25:50;20.90;99.90
13806;DHT22;6974;53.606;9.872;2023-07-16T00:28:19;21.00;99.90
13806;DHT22;6974;53.606;9.872;2023-07-16T00:30:46;20.90;99.90
13806;DHT22;6974;53.606;9.872;2023-07-16T00:33:13;20.90;99.90
13806;DHT22;6974;53.606;9.872;2023-07-16T00:35:47;20.90;99.90
13806;DHT22;6974;53.606;9.872;2023-07-16T00:38:16;20.90;99.90
13806;DHT22;6974;53.606;9.872;2023-07-16T00:40:44;20.90;99.90
13806;DHT22;6974;53.606;9.872;2023-07-16T00:43:11;21.00;99.90
13806;DHT22;6974;53.606;9.872;2023-07-16T00:45:40;20.90;99.90
13806;DHT22;6974;53.606;9.872;2023-07-16T00:48:07;20.90;99.90
13806;DHT22;6974;53.606;9.872;2023-07-16T00:50:36;20.90;99.90
13806;DHT22;6974;53.606;9.872;2023-07-16T00:53:05;20.90;99.90
13806;DHT22;6974;53.606;9.872;2023-07-16T00:55:33;20.90;99.90
13806;DHT22;6974;53.606;9.872;2023-07-16T00:58:03;20.90;99.90
13806;DHT22;6974;53.606;9.872;2023-07-16T01:00:31;20.90;99.90
13806;DHT22;6974;53.606;9.872;2023-07-16T01:03:00;20.80;99.90
13806;DHT22;6974;53.606;9.872;2023-07-16T01:05:45;20.90;99.90
13806;DHT22;6974;53.606;9.872;2023-07-16T01:08:18;20.80;99.90
13806;DHT22;6974;53.606;9.872;2023-07-16T01:10:48;20.80;99.90
13806;DHT22;6974;53.606;9.872;2023-07-16T01:13:17;20.80;99.90
13806;DHT22;6974;53.606;9.872;2023-07-16T01:15:44;20.80;99.90
13806;DHT22;6974;53.606;9.872;2023-07-16T01:18:13;20.70;99.90
13806;DHT22;6974;53.606;9.872;2023-07-16T01:20:41;20.70;99.90
13806;DHT22;6974;53.606;9.872;2023-07-16T01:23:26;20.70;99.90
13806;DHT22;6974;53.606;9.872;2023-07-16T01:26:19;20.70;99.90
13806;DHT22;6974;53.606;9.872;2023-07-16T01:29:09;20.70;99.90
13806;DHT22;6974;53.606;9.872;2023-07-16T01:31:37;20.70;99.90
13806;DHT22;6974;53.606;9.872;2023-07-16T01:34:06;20.60;99.90
13806;DHT22;6974;53.606;9.872;2023-07-16T01:36:34;20.60;99.90
13806;DHT22;6974;53.606;9.872;2023-07-16T01:39:03;20.60;99.90
13806;DHT22;6974;53.606;9.872;2023-07-16T01:41:29;20.60;99.90
13806;DHT22;6974;53.606;9.872;2023-07-16T01:43:58;20.60;99.90
13806;DHT22;6974;53.606;9.872;2023-07-16T01:46:27;20.60;99.90
13806;DHT22;6974;53.606;9.872;2023-07-16T01:48:55;20.50;99.90
13806;DHT22;6974;53.606;9.872;2023-07-16T01:51:22;20.60;99.90
13806;DHT22;6974;53.606;9.872;2023-07-16T01:53:49;20.50;99.90
13806;DHT22;6974;53.606;9.872;2023-07-16T01:56:18;20.60;99.90
13806;DHT22;6974;53.606;9.872;2023-07-16T01:58:45;20.60;99.90
13806;DHT22;6974;53.606;9.872;2023-07-16T02:01:12;20.60;99.90
13806;DHT22;6974;53.606;9.872;2023-07-16T02:03:40;20.60;99.90
13806;DHT22;6974;53.606;9.872;2023-07-16T02:06:07;20.60;99.90
13806;DHT22;6974;53.606;9.872;2023-07-16T02:08:34;20.60;99.90
13806;DHT22;6974;53.606;9.872;2023-07-16T02:11:01;20.60;99.90
13806;DHT22;6974;53.606;9.872;2023-07-16T02:13:27;20.50;99.90
13806;DHT22;6974;53.606;9.872;2023-07-16T02:15:54;20.50;99.90
13806;DHT22;6974;53.606;9.872;2023-07-16T02:18:21;20.40;99.90
13806;DHT22;6974;53.606;9.872;2023-07-16T02:20:49;20.50;99.90
13806;DHT22;6974;53.606;9.872;2023-07-16T02:23:16;20.40;99.90
13806;DHT22;6974;53.606;9.872;2023-07-16T02:25:43;20.40;99.90
13806;DHT22;6974;53.606;9.872;2023-07-16T02:28:10;20.40;99.90
13806;DHT22;6974;53.606;9.872;2023-07-16T02:30:37;20.40;99.90
13806;DHT22;6974;53.606;9.872;2023-07-16T02:33:06;20.40;99.90
13806;DHT22;6974;53.606;9.872;2023-07-16T02:35:33;20.40;99.90
13806;DHT22;6974;53.606;9.872;2023-07-16T02:38:01;20.30;99.90
13806;DHT22;6974;53.606;9.872;2023-07-16T02:40:28;20.40;99.90
13806;DHT22;6974;53.606;9.872;2023-07-16T02:42:55;20.30;99.90
13806;DHT22;6974;53.606;9.872;2023-07-16T02:45:22;20.30;99.90
13806;DHT22;6974;53.606;9.872;2023-07-16T02:47:49;20.30;99.90
13806;DHT22;6974;53.606;9.872;2023-07-16T02:50:16;20.30;99.90
13806;DHT22;6974;53.606;9.872;2023-07-16T02:52:43;20.30;99.90
13806;DHT22;6974;53.606;9.872;2023-07-16T02:55:11;20.30;99.90
13806;DHT22;6974;53.606;9.872;2023-07-16T02:57:38;20.30;99.90
13806;DHT22;6974;53.606;9.872;2023-07-16T03:00:06;20.30;99.90
13806;DHT22;6974;53.606;9.872;2023-07-16T03:02:33;20.30;99.90
13806;DHT22;6974;53.606;9.872;2023-07-16T03:05:00;20.30;99.90
13806;DHT22;6974;53.606;9.872;2023-07-16T03:07:27;20.30;99.90
13806;DHT22;6974;53.606;9.872;2023-07-16T03:09:53;20.30;99.90
13806;DHT22;6974;53.606;9.872;2023-07-16T03:12:22;20.30;99.90
13806;DHT22;6974;53.606;9.872;2023-07-16T03:14:49;20.30;99.90
13806;DHT22;6974;53.606;9.872;2023-07-16T03:17:19;20.30;99.90
13806;DHT22;6974;53.606;9.872;2023-07-16T03:19:46;20.20;99.90
13806;DHT22;6974;53.606;9.872;2023-07-16T03:22:13;20.20;99.90
13806;DHT22;6974;53.606;9.872;2023-07-16T03:24:40;20.20;99.90
13806;DHT22;6974;53.606;9.872;2023-07-16T03:27:07;20.20;99.90
13806;DHT22;6974;53.606;9.872;2023-07-16T03:29:35;20.30;99.90
13806;DHT22;6974;53.606;9.872;2023-07-16T03:32:02;20.20;99.90
13806;DHT22;6974;53.606;9.872;2023-07-16T03:34:29;20.20;99.90
13806;DHT22;6974;53.606;9.872;2023-07-16T03:36:56;20.20;99.90
13806;DHT22;6974;53.606;9.872;2023-07-16T03:39:23;20.10;99.90
13806;DHT22;6974;53.606;9.872;2023-07-16T03:41:50;20.20;99.90
13806;DHT22;6974;53.606;9.872;2023-07-16T03:44:16;20.20;99.90
13806;DHT22;6974;53.606;9.872;2023-07-16T03:46:45;20.20;99.90
13806;DHT22;6974;53.606;9.872;2023-07-16T03:49:11;20.10;99.90
13806;DHT22;6974;53.606;9.872;2023-07-16T03:51:38;20.10;99.90
13806;DHT22;6974;53.606;9.872;2023-07-16T03:54:05;20.10;99.90
13806;DHT22;6974;53.606;9.872;2023-07-16T03:56:32;20.10;99.90
13806;DHT22;6974;53.606;9.872;2023-07-16T03:58:59;20.00;99.90
13806;DHT22;6974;53.606;9.872;2023-07-16T04:01:25;20.00;99.90
13806;DHT22;6974;53.606;9.872;2023-07-16T04:03:54;20.00;99.90
13806;DHT22;6974;53.606;9.872;2023-07-16T04:06:20;20.00;99.90
13806;DHT22;6974;53.606;9.872;2023-07-16T04:08:47;20.00;99.90
13806;DHT22;6974;53.606;9.872;2023-07-16T04:11:14;20.00;99.90
13806;DHT22;6974;53.606;9.872;2023-07-16T04:13:41;20.00;99.90
13806;DHT22;6974;53.606;9.872;2023-07-16T04:16:08;20.00;99.90
13806;DHT22;6974;53.606;9.872;2023-07-16T04:18:34;20.10;99.90
13806;DHT22;6974;53.606;9.872;2023-07-16T04:21:03;20.10;99.90
13806;DHT22;6974;53.606;9.872;2023-07-16T04:23:30;20.10;99.90
13806;DHT22;6974;53.606;9.872;2023-07-16T04:25:56;20.10;99.90
13806;DHT22;6974;53.606;9.872;2023-07-16T04:28:23;20.10;99.90
13806;DHT22;6974;53.606;9.872;2023-07-16T04:30:50;20.10;99.90
13806;DHT22;6974;53.606;9.872;2023-07-16T04:33:17;20.10;99.90
13806;DHT22;6974;53.606;9.872;2023-07-16T04:35:44;20.20;99.90
13806;DHT22;6974;53.606;9.872;2023-07-16T04:38:12;20.20;99.90
13806;DHT22;6974;53.606;9.872;2023-07-16T04:40:41;20.30;99.90
13806;DHT22;6974;53.606;9.872;2023-07-16T04:43:08;20.30;99.90
13806;DHT22;6974;53.606;9.872;2023-07-16T04:45:35;20.30;99.90
13806;DHT22;6974;53.606;9.872;2023-07-16T04:48:02;20.30;99.90
13806;DHT22;6974;53.606;9.872;2023-07-16T04:50:28;20.30;99.90
13806;DHT22;6974;53.606;9.872;2023-07-16T04:52:55;20.30;99.90
13806;DHT22;6974;53.606;9.872;2023-07-16T04:55:23;20.30;99.90
13806;DHT22;6974;53.606;9.872;2023-07-16T04:57:50;20.40;99.90
13806;DHT22;6974;53.606;9.872;2023-07-16T05:00:19;20.40;99.90
13806;DHT22;6974;53.606;9.872;2023-07-16T05:02:45;20.40;99.90
13806;DHT22;6974;53.606;9.872;2023-07-16T05:05:12;20.30;99.90
13806;DHT22;6974;53.606;9.872;2023-07-16T05:07:39;20.40;99.90
13806;DHT22;6974;53.606;9.872;2023-07-16T05:10:07;20.40;99.90
13806;DHT22;6974;53.606;9.872;2023-07-16T05:12:35;20.40;99.90
13806;DHT22;6974;53.606;9.872;2023-07-16T05:15:02;20.40;99.90
13806;DHT22;6974;53.606;9.872;2023-07-16T05:17:29;20.40;99.90
13806;DHT22;6974;53.606;9.872;2023-07-16T05:19:56;20.40;99.90
13806;DHT22;6974;53.606;9.872;2023-07-16T05:22:23;20.40;99.90
13806;DHT22;6974;53.606;9.872;2023-07-16T05:24:50;20.40;99.90
13806;DHT22;6974;53.606;9.872;2023-07-16T05:27:16;20.40;99.90
13806;DHT22;6974;53.606;9.872;2023-07-16T05:29:45;20.40;99.90
13806;DHT22;6974;53.606;9.872;2023-07-16T05:32:11;20.40;99.90
13806;DHT22;6974;53.606;9.872;2023-07-16T05:34:38;20.40;99.90
13806;DHT22;6974;53.606;9.872;2023-07-16T05:37:05;20.40;99.90
13806;DHT22;6974;53.606;9.872;2023-07-16T05:39:32;20.50;99.90
13806;DHT22;6974;53.606;9.872;2023-07-16T05:41:59;20.50;99.90
13806;DHT22;6974;53.606;9.872;2023-07-16T05:44:27;20.50;99.90
13806;DHT22;6974;53.606;9.872;2023-07-16T05:46:56;20.60;99.90
13806;DHT22;6974;53.606;9.872;2023-07-16T05:49:23;20.60;99.90
13806;DHT22;6974;53.606;9.872;2023-07-16T05:51:51;20.60;99.90
13806;DHT22;6974;53.606;9.872;2023-07-16T05:54:18;20.60;99.90
13806;DHT22;6974;53.606;9.872;2023-07-16T05:56:45;20.60;99.90
13806;DHT22;6974;53.606;9.872;2023-07-16T05:59:11;20.70;99.90
13806;DHT22;6974;53.606;9.872;2023-07-16T06:01:38;20.70;99.90
13806;DHT22;6974;53.606;9.872;2023-07-16T06:04:06;20.80;99.90
13806;DHT22;6974;53.606;9.872;2023-07-16T06:06:33;20.80;99.90
13806;DHT22;6974;53.606;9.872;2023-07-16T06:09:00;20.80;99.90
13806;DHT22;6974;53.606;9.872;2023-07-16T06:11:27;20.80;99.90
13806;DHT22;6974;53.606;9.872;2023-07-16T06:13:54;20.90;99.90
13806;DHT22;6974;53.606;9.872;2023-07-16T06:16:21;20.80;99.90
13806;DHT22;6974;53.606;9.872;2023-07-16T06:18:48;20.90;99.90
13806;DHT22;6974;53.606;9.872;2023-07-16T06:21:16;20.90;99.90
13806;DHT22;6974;53.606;9.872;2023-07-16T06:23:43;20.90;99.90
13806;DHT22;6974;53.606;9.872;2023-07-16T06:26:10;20.90;99.90
13806;DHT22;6974;53.606;9.872;2023-07-16T06:28:37;20.90;99.90
13806;DHT22;6974;53.606;9.872;2023-07-16T06:31:03;20.90;99.90
13806;DHT22;6974;53.606;9.872;2023-07-16T06:33:30;21.00;99.90
13806;DHT22;6974;53.606;9.872;2023-07-16T06:35:57;21.10;99.90
13806;DHT22;6974;53.606;9.872;2023-07-16T06:38:25;21.00;99.90
13806;DHT22;6974;53.606;9.872;2023-07-16T06:40:53;21.10;99.90
13806;DHT22;6974;53.606;9.872;2023-07-16T06:43:20;21.10;99.90
13806;DHT22;6974;53.606;9.872;2023-07-16T06:45:48;21.20;99.90
13806;DHT22;6974;53.606;9.872;2023-07-16T06:48:15;21.10;99.90
13806;DHT22;6974;53.606;9.872;2023-07-16T06:50:42;21.10;99.90
13806;DHT22;6974;53.606;9.872;2023-07-16T06:53:09;21.10;99.90
13806;DHT22;6974;53.606;9.872;2023-07-16T06:55:37;21.10;99.90
13806;DHT22;6974;53.606;9.872;2023-07-16T06:58:04;21.20;99.90
13806;DHT22;6974;53.606;9.872;2023-07-16T07:00:31;21.20;99.90
13806;DHT22;6974;53.606;9.872;2023-07-16T07:02:58;21.10;99.90
13806;DHT22;6974;53.606;9.872;2023-07-16T07:05:25;21.10;99.90
13806;DHT22;6974;53.606;9.872;2023-07-16T07:07:52;21.20;99.90
13806;DHT22;6974;53.606;9.872;2023-07-16T07:10:19;21.20;99.90
13806;DHT22;6974;53.606;9.872;2023-07-16T07:12:47;21.30;99.90
13806;DHT22;6974;53.606;9.872;2023-07-16T07:15:14;21.20;99.90
13806;DHT22;6974;53.606;9.872;2023-07-16T07:17:41;21.30;99.90
13806;DHT22;6974;53.606;9.872;2023-07-16T07:20:09;21.20;99.90
13806;DHT22;6974;53.606;9.872;2023-07-16T07:22:36;21.20;99.90
13806;DHT22;6974;53.606;9.872;2023-07-16T07:25:03;21.20;99.90
13806;DHT22;6974;53.606;9.872;2023-07-16T07:27:30;21.30;99.90
13806;DHT22;6974;53.606;9.872;2023-07-16T07:29:59;21.30;99.90
13806;DHT22;6974;53.606;9.872;2023-07-16T07:32:25;21.40;99.90
13806;DHT22;6974;53.606;9.872;2023-07-16T07:34:52;21.30;99.90
13806;DHT22;6974;53.606;9.872;2023-07-16T07:37:19;21.40;99.90
13806;DHT22;6974;53.606;9.872;2023-07-16T07:39:51;21.50;99.90
13806;DHT22;6974;53.606;9.872;2023-07-16T07:42:18;21.50;99.90
13806;DHT22;6974;53.606;9.872;2023-07-16T07:44:44;21.60;99.90
13806;DHT22;6974;53.606;9.872;2023-07-16T07:47:13;21.60;99.90
13806;DHT22;6974;53.606;9.872;2023-07-16T07:49:39;21.60;99.90
13806;DHT22;6974;53.606;9.872;2023-07-16T07:52:07;21.60;99.90
13806;DHT22;6974;53.606;9.872;2023-07-16T07:54:34;21.60;99.90
13806;DHT22;6974;53.606;9.872;2023-07-16T07:57:01;21.70;99.90
13806;DHT22;6974;53.606;9.872;2023-07-16T07:59:29;21.90;99.90
13806;DHT22;6974;53.606;9.872;2023-07-16T08:01:56;22.00;99.90
13806;DHT22;6974;53.606;9.872;2023-07-16T08:04:24;22.00;99.90
13806;DHT22;6974;53.606;9.872;2023-07-16T08:06:53;22.00;99.90
13806;DHT22;6974;53.606;9.872;2023-07-16T08:09:19;22.20;99.90
13806;DHT22;6974;53.606;9.872;2023-07-16T08:11:46;22.30;99.90
13806;DHT22;6974;53.606;9.872;2023-07-16T08:14:13;22.30;99.90
13806;DHT22;6974;53.606;9.872;2023-07-16T08:16:40;22.40;99.90
13806;DHT22;6974;53.606;9.872;2023-07-16T08:19:07;22.30;99.90
13806;DHT22;6974;53.606;9.872;2023-07-16T08:21:35;22.40;99.90
13806;DHT22;6974;53.606;9.872;2023-07-16T08:24:04;22.40;99.90
13806;DHT22;6974;53.606;9.872;2023-07-16T08:26:31;22.50;99.90
13806;DHT22;6974;53.606;9.872;2023-07-16T08:28:58;22.40;99.90
13806;DHT22;6974;53.606;9.872;2023-07-16T08:31:26;22.40;99.90
13806;DHT22;6974;53.606;9.872;2023-07-16T08:33:53;22.40;99.90
13806;DHT22;6974;53.606;9.872;2023-07-16T08:36:20;22.40;99.90
13806;DHT22;6974;53.606;9.872;2023-07-16T08:38:48;22.40;99.90
13806;DHT22;6974;53.606;9.872;2023-07-16T08:41:15;22.40;99.90
13806;DHT22;6974;53.606;9.872;2023-07-16T08:43:43;22.40;99.90
13806;DHT22;6974;53.606;9.872;2023-07-16T08:46:12;22.40;99.90
13806;DHT22;6974;53.606;9.872;2023-07-16T08:48:39;22.30;99.90
13806;DHT22;6974;53.606;9.872;2023-07-16T08:51:07;22.20;99.90
13806;DHT22;6974;53.606;9.872;2023-07-16T08:53:36;22.20;99.90
13806;DHT22;6974;53.606;9.872;2023-07-16T08:56:04;22.00;99.90
13806;DHT22;6974;53.606;9.872;2023-07-16T08:58:32;21.90;99.90
13806;DHT22;6974;53.606;9.872;2023-07-16T09:00:59;21.80;99.90
13806;DHT22;6974;53.606;9.872;2023-07-16T09:03:27;21.80;99.90
13806;DHT22;6974;53.606;9.872;2023-07-16T09:05:54;21.80;99.90
13806;DHT22;6974;53.606;9.872;2023-07-16T09:08:20;21.80;99.90
13806;DHT22;6974;53.606;9.872;2023-07-16T09:10:54;22.00;99.90
13806;DHT22;6974;53.606;9.872;2023-07-16T09:13:23;22.20;99.90
13806;DHT22;6974;53.606;9.872;2023-07-16T09:15:52;22.40;99.90
13806;DHT22;6974;53.606;9.872;2023-07-16T09:18:20;22.50;99.90
13806;DHT22;6974;53.606;9.872;2023-07-16T09:20:47;22.70;99.90
13806;DHT22;6974;53.606;9.872;2023-07-16T09:23:17;22.90;99.90
13806;DHT22;6974;53.606;9.872;2023-07-16T09:25:43;22.80;99.90
13806;DHT22;6974;53.606;9.872;2023-07-16T09:28:12;22.80;99.90
13806;DHT22;6974;53.606;9.872;2023-07-16T09:30:40;22.80;99.90
13806;DHT22;6974;53.606;9.872;2023-07-16T09:33:12;22.90;99.90
13806;DHT22;6974;53.606;9.872;2023-07-16T09:35:39;22.90;99.90
13806;DHT22;6974;53.606;9.872;2023-07-16T09:38:07;22.90;99.90
13806;DHT22;6974;53.606;9.872;2023-07-16T09:40:35;22.90;99.90
13806;DHT22;6974;53.606;9.872;2023-07-16T09:43:02;23.00;99.90
13806;DHT22;6974;53.606;9.872;2023-07-16T09:45:29;23.20;99.90
13806;DHT22;6974;53.606;9.872;2023-07-16T09:47:57;23.40;99.90
13806;DHT22;6974;53.606;9.872;2023-07-16T09:50:28;23.50;99.90
13806;DHT22;6974;53.606;9.872;2023-07-16T09:52:55;23.40;99.90
13806;DHT22;6974;53.606;9.872;2023-07-16T09:55:23;23.20;99.90
13806;DHT22;6974;53.606;9.872;2023-07-16T09:57:52;23.10;99.90
13806;DHT22;6974;53.606;9.872;2023-07-16T10:00:21;22.90;99.90
13806;DHT22;6974;53.606;9.872;2023-07-16T10:02:50;22.90;99.90
13806;DHT22;6974;53.606;9.872;2023-07-16T10:05:23;23.00;99.90
13806;DHT22;6974;53.606;9.872;2023-07-16T10:07:51;23.20;99.90
13806;DHT22;6974;53.606;9.872;2023-07-16T10:10:19;23.40;99.90
13806;DHT22;6974;53.606;9.872;2023-07-16T10:12:55;23.40;99.90
13806;DHT22;6974;53.606;9.872;2023-07-16T10:15:26;23.60;99.90
13806;DHT22;6974;53.606;9.872;2023-07-16T10:17:53;23.90;99.90
13806;DHT22;6974;53.606;9.872;2023-07-16T10:20:30;24.00;99.90
13806;DHT22;6974;53.606;9.872;2023-07-16T10:22:58;24.20;99.90
13806;DHT22;6974;53.606;9.872;2023-07-16T10:25:26;24.20;99.90
13806;DHT22;6974;53.606;9.872;2023-07-16T10:27:54;24.20;99.90
13806;DHT22;6974;53.606;9.872;2023-07-16T10:30:21;24.10;99.90
13806;DHT22;6974;53.606;9.872;2023-07-16T10:32:51;24.00;99.90
13806;DHT22;6974;53.606;9.872;2023-07-16T10:35:18;24.20;99.90
13806;DHT22;6974;53.606;9.872;2023-07-16T10:37:46;24.20;99.90
13806;DHT22;6974;53.606;9.872;2023-07-16T10:40:14;24.20;99.90
13806;DHT22;6974;53.606;9.872;2023-07-16T10:42:42;24.20;99.90
13806;DHT22;6974;53.606;9.872;2023-07-16T10:45:10;24.20;99.90
13806;DHT22;6974;53.606;9.872;2023-07-16T10:47:39;24.30;99.90
13806;DHT22;6974;53.606;9.872;2023-07-16T10:50:08;24.40;99.90
13806;DHT22;6974;53.606;9.872;2023-07-16T10:52:36;24.40;99.90
13806;DHT22;6974;53.606;9.872;2023-07-16T10:55:05;24.40;99.90
13806;DHT22;6974;53.606;9.872;2023-07-16T10:57:32;24.50;99.90
13806;DHT22;6974;53.606;9.872;2023-07-16T10:59:59;24.80;99.90
13806;DHT22;6974;53.606;9.872;2023-07-16T11:02:27;25.00;99.90
13806;DHT22;6974;53.606;9.872;2023-07-16T11:04:54;25.30;99.90
13806;DHT22;6974;53.606;9.872;2023-07-16T11:07:23;25.60;99.90
13806;DHT22;6974;53.606;9.872;2023-07-16T11:09:51;25.80;99.90
13806;DHT22;6974;53.606;9.872;2023-07-16T11:12:22;25.90;99.90
13806;DHT22;6974;53.606;9.872;2023-07-16T11:14:50;26.00;99.90
13806;DHT22;6974;53.606;9.872;2023-07-16T11:17:17;26.00;99.90
13806;DHT22;6974;53.606;9.872;2023-07-16T11:19:45;25.90;99.90
13806;DHT22;6974;53.606;9.872;2023-07-16T11:22:13;25.90;99.90
13806;DHT22;6974;53.606;9.872;2023-07-16T11:24:42;25.80;99.90
13806;DHT22;6974;53.606;9.872;2023-07-16T11:27:16;25.60;99.90
13806;DHT22;6974;53.606;9.872;2023-07-16T11:29:50;25.40;99.90
13806;DHT22;6974;53.606;9.872;2023-07-16T11:32:27;25.30;99.90
13806;DHT22;6974;53.606;9.872;2023-07-16T11:34:54;25.50;99.90
13806;DHT22;6974;53.606;9.872;2023-07-16T11:37:21;25.50;99.90
13806;DHT22;6974;53.606;9.872;2023-07-16T11:39:48;25.40;99.90
13806;DHT22;6974;53.606;9.872;2023-07-16T11:42:22;25.40;99.90
13806;DHT22;6974;53.606;9.872;2023-07-16T11:44:51;25.40;99.90
13806;DHT22;6974;53.606;9.872;2023-07-16T11:47:17;25.50;99.90
13806;DHT22;6974;53.606;9.872;2023-07-16T11:49:44;25.60;99.90
13806;DHT22;6974;53.606;9.872;2023-07-16T11:52:11;25.60;99.90
13806;DHT22;6974;53.606;9.872;2023-07-16T11:54:38;25.50;99.90
13806;DHT22;6974;53.606;9.872;2023-07-16T11:57:05;25.40;99.90
13806;DHT22;6974;53.606;9.872;2023-07-16T11:59:32;25.40;99.90
13806;DHT22;6974;53.606;9.872;2023-07-16T12:02:01;25.50;99.90
13806;DHT22;6974;53.606;9.872;2023-07-16T12:04:28;25.60;99.90
13806;DHT22;6974;53.606;9.872;2023-07-16T12:06:55;25.70;99.90
13806;DHT22;6974;53.606;9.872;2023-07-16T12:09:22;25.90;99.90
13806;DHT22;6974;53.606;9.872;2023-07-16T12:11:48;26.00;99.90
13806;DHT22;6974;53.606;9.872;2023-07-16T12:14:15;26.00;99.90
13806;DHT22;6974;53.606;9.872;2023-07-16T12:16:42;26.10;99.90
13806;DHT22;6974;53.606;9.872;2023-07-16T12:19:10;26.10;99.90
13806;DHT22;6974;53.606;9.872;2023-07-16T12:21:37;26.00;99.90
13806;DHT22;6974;53.606;9.872;2023-07-16T12:24:05;25.90;99.90
13806;DHT22;6974;53.606;9.872;2023-07-16T12:26:32;25.80;99.90
13806;DHT22;6974;53.606;9.872;2023-07-16T12:28:59;25.80;99.90
13806;DHT22;6974;53.606;9.872;2023-07-16T12:31:28;25.90;99.90
13806;DHT22;6974;53.606;9.872;2023-07-16T12:33:55;26.00;99.90
13806;DHT22;6974;53.606;9.872;2023-07-16T12:36:23;26.10;99.90
13806;DHT22;6974;53.606;9.872;2023-07-16T12:38:50;26.20;99.90
13806;DHT22;6974;53.606;9.872;2023-07-16T12:41:17;26.20;99.90
13806;DHT22;6974;53.606;9.872;2023-07-16T12:43:44;26.30;99.90
13806;DHT22;6974;53.606;9.872;2023-07-16T12:46:10;26.40;99.90
13806;DHT22;6974;53.606;9.872;2023-07-16T12:48:37;26.40;99.90
13806;DHT22;6974;53.606;9.872;2023-07-16T12:51:04;26.40;99.90
13806;DHT22;6974;53.606;9.872;2023-07-16T12:53:33;26.20;99.90
13806;DHT22;6974;53.606;9.872;2023-07-16T12:55:59;26.10;99.90
13806;DHT22;6974;53.606;9.872;2023-07-16T12:58:26;26.10;99.90
13806;DHT22;6974;53.606;9.872;2023-07-16T13:00:53;26.10;99.90
13806;DHT22;6974;53.606;9.872;2023-07-16T13:03:20;26.10;99.90
13806;DHT22;6974;53.606;9.872;2023-07-16T13:05:47;25.90;99.90
13806;DHT22;6974;53.606;9.872;2023-07-16T13:08:14;25.80;99.90
13806;DHT22;6974;53.606;9.872;2023-07-16T13:10:42;25.70;99.90
13806;DHT22;6974;53.606;9.872;2023-07-16T13:13:09;25.60;99.90
13806;DHT22;6974;53.606;9.872;2023-07-16T13:15:36;25.50;99.90
13806;DHT22;6974;53.606;9.872;2023-07-16T13:18:03;25.40;99.90
13806;DHT22;6974;53.606;9.872;2023-07-16T13:20:30;25.30;99.90
13806;DHT22;6974;53.606;9.872;2023-07-16T13:22:57;25.20;99.90
13806;DHT22;6974;53.606;9.872;2023-07-16T13:25:24;25.10;99.90
13806;DHT22;6974;53.606;9.872;2023-07-16T13:27:52;24.90;99.90
13806;DHT22;6974;53.606;9.872;2023-07-16T13:30:19;24.80;99.90
13806;DHT22;6974;53.606;9.872;2023-07-16T13:32:46;24.70;99.90
13806;DHT22;6974;53.606;9.872;2023-07-16T13:35:14;24.60;99.90
13806;DHT22;6974;53.606;9.872;2023-07-16T13:37:42;24.60;99.90
13806;DHT22;6974;53.606;9.872;2023-07-16T13:40:09;24.80;99.90
13806;DHT22;6974;53.606;9.872;2023-07-16T13:42:36;25.00;99.90
13806;DHT22;6974;53.606;9.872;2023-07-16T13:45:05;25.20;99.90
13806;DHT22;6974;53.606;9.872;2023-07-16T13:47:32;25.20;99.90
13806;DHT22;6974;53.606;9.872;2023-07-16T13:49:59;25.40;99.90
13806;DHT22;6974;53.606;9.872;2023-07-16T13:52:26;25.40;99.90
13806;DHT22;6974;53.606;9.872;2023-07-16T13:54:53;25.40;99.90
13806;DHT22;6974;53.606;9.872;2023-07-16T13:57:20;25.40;99.90
13806;DHT22;6974;53.606;9.872;2023-07-16T13:59:47;25.40;99.90
13806;DHT22;6974;53.606;9.872;2023-07-16T14:02:15;25.30;99.90
13806;DHT22;6974;53.606;9.872;2023-07-16T14:04:42;25.20;99.90
13806;DHT22;6974;53.606;9.872;2023-07-16T14:07:09;25.10;99.90
13806;DHT22;6974;53.606;9.872;2023-07-16T14:09:36;25.00;99.90
13806;DHT22;6974;53.606;9.872;2023-07-16T14:12:03;24.90;99.90
13806;DHT22;6974;53.606;9.872;2023-07-16T14:14:30;24.80;99.90
13806;DHT22;6974;53.606;9.872;2023-07-16T14:16:57;24.70;99.90
13806;DHT22;6974;53.606;9.872;2023-07-16T14:19:25;24.60;99.90
13806;DHT22;6974;53.606;9.872;2023-07-16T14:21:52;24.60;99.90
13806;DHT22;6974;53.606;9.872;2023-07-16T14:24:19;24.50;99.90
13806;DHT22;6974;53.606;9.872;2023-07-16T14:26:46;24.60;99.90
13806;DHT22;6974;53.606;9.872;2023-07-16T14:29:14;24.70;99.90
13806;DHT22;6974;53.606;9.872;2023-07-16T14:31:41;24.70;99.90
13806;DHT22;6974;53.606;9.872;2023-07-16T14:34:08;25.00;99.90
13806;DHT22;6974;53.606;9.872;2023-07-16T14:36:36;25.10;99.90
13806;DHT22;6974;53.606;9.872;2023-07-16T14:39:03;25.30;99.90
13806;DHT22;6974;53.606;9.872;2023-07-16T14:41:30;25.50;99.90
13806;DHT22;6974;53.606;9.872;2023-07-16T14:43:57;25.50;99.90
13806;DHT22;6974;53.606;9.872;2023-07-16T14:46:23;25.70;99.90
13806;DHT22;6974;53.606;9.872;2023-07-16T14:48:51;25.90;99.90
13806;DHT22;6974;53.606;9.872;2023-07-16T14:51:21;26.00;99.90
13806;DHT22;6974;53.606;9.872;2023-07-16T14:53:50;26.10;99.90
13806;DHT22;6974;53.606;9.872;2023-07-16T14:56:18;26.20;99.90
13806;DHT22;6974;53.606;9.872;2023-07-16T14:58:45;26.40;99.90
13806;DHT22;6974;53.606;9.872;2023-07-16T15:01:11;26.40;99.90
13806;DHT22;6974;53.606;9.872;2023-07-16T15:03:39;26.40;99.90
13806;DHT22;6974;53.606;9.872;2023-07-16T15:06:07;26.50;99.90
13806;DHT22;6974;53.606;9.872;2023-07-16T15:08:34;26.40;99.90
13806;DHT22;6974;53.606;9.872;2023-07-16T15:11:02;26.30;99.90
13806;DHT22;6974;53.606;9.872;2023-07-16T15:13:29;26.20;99.90
13806;DHT22;6974;53.606;9.872;2023-07-16T15:15:56;26.20;99.90
13806;DHT22;6974;53.606;9.872;2023-07-16T15:18:24;26.20;99.90
13806;DHT22;6974;53.606;9.872;2023-07-16T15:20:56;26.40;99.90
13806;DHT22;6974;53.606;9.872;2023-07-16T15:23:24;26.50;99.90
13806;DHT22;6974;53.606;9.872;2023-07-16T15:25:50;26.60;99.90
13806;DHT22;6974;53.606;9.872;2023-07-16T15:28:19;26.80;99.90
13806;DHT22;6974;53.606;9.872;2023-07-16T15:30:46;26.90;99.90
13806;DHT22;6974;53.606;9.872;2023-07-16T15:33:13;27.00;99.90
13806;DHT22;6974;53.606;9.872;2023-07-16T15:35:39;27.00;99.90
13806;DHT22;6974;53.606;9.872;2023-07-16T15:38:06;26.90;99.90
13806;DHT22;6974;53.606;9.872;2023-07-16T15:40:34;26.90;99.90
13806;DHT22;6974;53.606;9.872;2023-07-16T15:43:01;27.00;99.90
13806;DHT22;6974;53.606;9.872;2023-07-16T15:45:29;26.90;99.90
13806;DHT22;6974;53.606;9.872;2023-07-16T15:47:56;26.60;99.90